createdAt,value
2018-09-17T00:00:14.165Z,7.33
2018-09-17T00:03:18.389Z,7.07
2018-09-17T00:06:22.620Z,6.80
2018-09-17T00:09:26.833Z,7.17
2018-09-17T00:12:31.052Z,6.87
2018-09-17T00:15:35.266Z,7.70
2018-09-17T00:18:39.546Z,7.13
2018-09-17T00:21:43.758Z,7.73
2018-09-17T00:24:47.978Z,7.03
2018-09-17T00:27:52.234Z,8.27
2018-09-17T00:30:56.461Z,7.43
2018-09-17T00:34:00.685Z,7.20
2018-09-17T00:37:04.936Z,7.30
2018-09-17T00:40:09.137Z,7.40
2018-09-17T00:43:13.339Z,7.13
2018-09-17T00:46:17.570Z,6.93
2018-09-17T00:49:21.776Z,7.50
2018-09-17T00:52:26.009Z,7.10
2018-09-17T00:55:30.241Z,7.20
2018-09-17T00:58:34.431Z,6.60
2018-09-17T01:01:38.626Z,7.40
2018-09-17T01:04:42.859Z,7.20
2018-09-17T01:07:47.705Z,7.30
2018-09-17T01:10:51.957Z,6.87
2018-09-17T01:13:56.496Z,7.23
2018-09-17T01:17:00.709Z,7.63
2018-09-17T01:20:05.087Z,6.70
2018-09-17T01:23:09.267Z,6.63
2018-09-17T01:26:13.472Z,6.67
2018-09-17T01:29:17.646Z,6.83
2018-09-17T01:32:22.225Z,6.93
2018-09-17T01:35:26.437Z,6.73
2018-09-17T01:38:30.669Z,6.50
2018-09-17T01:41:34.851Z,6.87
2018-09-17T01:44:39.086Z,6.47
2018-09-17T01:47:43.328Z,6.53
2018-09-17T01:50:47.550Z,7.20
2018-09-17T01:53:51.762Z,7.10
2018-09-17T01:56:56.049Z,6.93
2018-09-17T02:00:00.267Z,6.97
2018-09-17T02:03:04.480Z,7.20
2018-09-17T02:06:08.717Z,7.27
2018-09-17T02:09:13.012Z,6.83
2018-09-17T02:12:17.169Z,7.37
2018-09-17T02:15:21.387Z,6.40
2018-09-17T02:18:25.596Z,7.17
2018-09-17T02:21:29.839Z,7.97
2018-09-17T02:24:34.146Z,7.13
2018-09-17T02:27:38.365Z,7.20
2018-09-17T02:30:42.589Z,7.23
2018-09-17T02:33:46.946Z,7.90
2018-09-17T02:36:51.275Z,8.43
2018-09-17T02:39:55.488Z,7.40
2018-09-17T02:42:59.678Z,8.73
2018-09-17T02:46:03.877Z,9.40
2018-09-17T02:49:08.069Z,9.77
2018-09-17T02:52:12.300Z,8.70
2018-09-17T02:55:16.500Z,9.70
2018-09-17T02:58:20.722Z,9.33
2018-09-17T03:01:24.953Z,9.10
2018-09-17T03:04:29.263Z,9.77
2018-09-17T03:07:33.462Z,8.60
2018-09-17T03:10:37.696Z,9.43
2018-09-17T03:13:41.904Z,9.33
2018-09-17T03:17:03.449Z,10.33
2018-09-17T03:20:07.657Z,9.57
2018-09-17T03:23:11.864Z,9.67
2018-09-17T03:26:16.072Z,10.83
2018-09-17T03:29:20.285Z,9.83
2018-09-17T03:32:24.500Z,10.13
2018-09-17T03:35:28.689Z,10.93
2018-09-17T03:38:53.816Z,10.80
2018-09-17T03:41:58.023Z,11.67
2018-09-17T03:45:02.250Z,12.33
2018-09-17T03:48:06.461Z,10.77
2018-09-17T03:51:11.273Z,10.10
2018-09-17T03:54:15.469Z,11.00
2018-09-17T03:57:19.702Z,11.33
2018-09-17T04:00:23.921Z,11.73
2018-09-17T04:03:28.138Z,11.30
2018-09-17T04:06:32.395Z,10.73
2018-09-17T04:09:36.675Z,11.43
2018-09-17T04:12:40.900Z,10.73
2018-09-17T04:15:45.131Z,10.57
2018-09-17T04:18:49.360Z,11.33
2018-09-17T04:21:53.596Z,12.20
2018-09-17T04:24:57.792Z,11.87
2018-09-17T04:28:02.029Z,11.80
2018-09-17T04:31:06.381Z,11.97
2018-09-17T04:34:10.599Z,11.37
2018-09-17T04:37:14.835Z,12.30
2018-09-17T04:40:19.068Z,12.73
2018-09-17T04:43:23.269Z,12.67
2018-09-17T04:46:27.504Z,12.97
2018-09-17T04:49:31.733Z,13.20
2018-09-17T04:52:35.979Z,12.57
2018-09-17T04:55:40.172Z,12.83
2018-09-17T04:58:44.402Z,12.87
2018-09-17T05:01:48.588Z,13.10
2018-09-17T05:04:52.865Z,12.67
2018-09-17T05:07:57.107Z,12.47
2018-09-17T05:11:01.351Z,13.67
2018-09-17T05:14:05.620Z,13.67
2018-09-17T05:17:09.837Z,13.60
2018-09-17T05:20:14.061Z,12.73
2018-09-17T05:23:18.253Z,14.10
2018-09-17T05:26:22.477Z,13.13
2018-09-17T05:29:27.076Z,13.10
2018-09-17T05:32:31.304Z,12.70
2018-09-17T05:35:35.509Z,13.10
2018-09-17T05:38:39.708Z,12.83
2018-09-17T05:41:43.937Z,12.90
2018-09-17T05:44:48.137Z,13.27
2018-09-17T05:47:52.349Z,13.20
2018-09-17T05:50:56.556Z,12.83
2018-09-17T05:54:00.781Z,13.53
2018-09-17T05:57:04.964Z,13.73
2018-09-17T06:00:09.184Z,12.80
2018-09-17T06:03:13.423Z,14.10
2018-09-17T06:06:17.637Z,12.67
2018-09-17T06:09:21.873Z,13.10
2018-09-17T06:12:26.102Z,13.43
2018-09-17T06:15:30.351Z,13.50
2018-09-17T06:18:34.738Z,13.67
2018-09-17T06:21:38.980Z,13.20
2018-09-17T06:24:43.173Z,13.03
2018-09-17T06:27:47.453Z,12.30
2018-09-17T06:30:51.684Z,13.03
2018-09-17T06:33:55.962Z,13.07
2018-09-17T06:37:00.169Z,14.20
2018-09-17T06:40:04.385Z,14.47
2018-09-17T06:43:08.659Z,14.90
2018-09-17T06:46:12.956Z,15.17
2018-09-17T06:49:17.185Z,14.63
2018-09-17T06:52:21.416Z,14.60
2018-09-17T06:55:25.613Z,14.80
2018-09-17T06:58:29.853Z,15.63
2018-09-17T07:01:34.064Z,14.20
2018-09-17T07:04:38.269Z,14.47
2018-09-17T07:07:42.552Z,14.13
2018-09-17T07:10:46.858Z,14.30
2018-09-17T07:13:51.069Z,14.70
2018-09-17T07:16:55.294Z,14.40
2018-09-17T07:19:59.502Z,13.90
2018-09-17T07:23:04.989Z,13.93
2018-09-17T07:26:09.205Z,13.93
2018-09-17T07:29:13.428Z,13.67
2018-09-17T07:32:17.604Z,13.90
2018-09-17T07:35:21.842Z,15.85
2018-09-17T07:38:26.016Z,13.70
2018-09-17T07:41:30.221Z,14.73
2018-09-17T07:44:34.444Z,14.37
2018-09-17T07:47:38.674Z,14.30
2018-09-17T07:50:42.857Z,13.77
2018-09-17T07:53:47.118Z,14.10
2018-09-17T07:56:51.317Z,13.63
2018-09-17T07:59:55.540Z,15.40
2018-09-17T08:02:59.749Z,13.83
2018-09-17T08:06:03.973Z,13.80
2018-09-17T08:09:11.845Z,14.30
2018-09-17T08:12:16.057Z,13.57
2018-09-17T08:15:20.998Z,13.13
2018-09-17T08:18:25.222Z,13.33
2018-09-17T08:21:29.460Z,12.73
2018-09-17T08:24:33.706Z,12.77
2018-09-17T08:27:37.920Z,12.00
2018-09-17T08:30:42.205Z,11.97
2018-09-17T08:33:46.396Z,12.37
2018-09-17T08:36:50.737Z,12.13
2018-09-17T08:39:54.959Z,12.17
2018-09-17T08:42:59.166Z,11.70
2018-09-17T08:46:03.384Z,11.43
2018-09-17T08:49:07.775Z,11.80
2018-09-17T08:52:12.001Z,11.97
2018-09-17T08:55:21.466Z,12.10
2018-09-17T08:58:30.554Z,11.83
2018-09-17T09:01:46.625Z,11.87
2018-09-17T09:04:56.080Z,11.27
2018-09-17T09:08:01.687Z,12.07
2018-09-17T09:13:24.498Z,12.30
2018-09-17T09:16:29.124Z,11.60
2018-09-17T09:19:33.610Z,11.20
2018-09-17T09:22:38.275Z,11.43
2018-09-17T09:25:42.734Z,11.47
2018-09-17T09:28:47.268Z,10.73
2018-09-17T09:31:51.696Z,11.23
2018-09-17T09:34:57.461Z,9.90
2018-09-17T09:38:02.111Z,10.60
2018-09-17T09:41:06.557Z,9.43
2018-09-17T09:44:10.858Z,9.70
2018-09-17T09:47:15.101Z,8.70
2018-09-17T09:50:20.357Z,8.03
2018-09-17T09:53:24.726Z,7.97
2018-09-17T09:59:52.093Z,9.03
2018-09-17T10:03:01.296Z,8.37
2018-09-17T10:06:05.990Z,8.77
2018-09-17T10:09:15.505Z,9.07
2018-09-17T10:12:25.110Z,8.07
2018-09-17T10:15:35.599Z,8.07
2018-09-17T10:18:45.201Z,7.67
2018-09-17T10:21:49.441Z,8.00
2018-09-17T10:24:54.754Z,8.10
2018-09-17T10:27:58.981Z,7.30
2018-09-17T10:31:03.160Z,7.03
2018-09-17T10:34:07.411Z,7.00
2018-09-17T10:37:12.057Z,7.20
2018-09-17T10:40:16.306Z,7.63
2018-09-17T10:43:20.496Z,8.23
2018-09-17T10:46:24.728Z,7.37
2018-09-17T10:49:28.937Z,7.60
2018-09-17T10:52:33.181Z,7.50
2018-09-17T10:55:37.397Z,8.03
2018-09-17T10:58:41.630Z,7.53
2018-09-17T11:01:45.840Z,7.70
2018-09-17T11:04:50.036Z,8.07
2018-09-17T11:07:54.216Z,8.00
2018-09-17T11:10:58.428Z,7.20
2018-09-17T11:14:02.640Z,7.00
2018-09-17T11:17:06.948Z,7.50
2018-09-17T11:20:11.148Z,6.70
2018-09-17T11:23:15.333Z,7.10
2018-09-17T11:26:19.530Z,7.30
2018-09-17T11:29:23.773Z,6.70
2018-09-17T11:32:27.965Z,6.60
2018-09-17T11:35:32.221Z,7.33
2018-09-17T11:38:36.457Z,6.77
2018-09-17T11:41:41.511Z,5.73
2018-09-17T11:44:46.997Z,6.20
2018-09-17T11:47:51.413Z,6.87
2018-09-17T11:50:55.784Z,6.37
2018-09-17T11:54:00.064Z,6.47
2018-09-17T11:57:04.229Z,7.53
2018-09-17T12:00:08.665Z,7.50
2018-09-17T12:03:18.082Z,6.90
2018-09-17T12:06:27.610Z,6.40
2018-09-17T12:09:31.808Z,6.37
2018-09-17T12:12:36.558Z,7.20
2018-09-17T12:15:41.774Z,6.53
2018-09-17T12:18:46.004Z,6.20
2018-09-17T12:21:50.188Z,6.27
2018-09-17T12:24:54.385Z,6.67
2018-09-17T12:27:58.577Z,6.27
2018-09-17T12:31:02.783Z,6.53
2018-09-17T12:34:07.034Z,5.07
2018-09-17T12:37:11.259Z,5.00
2018-09-17T12:40:15.444Z,3.53
2018-09-17T12:43:19.642Z,4.50
2018-09-17T12:46:24.008Z,5.20
2018-09-17T12:49:28.216Z,5.40
2018-09-17T12:52:32.408Z,4.50
2018-09-17T12:55:36.590Z,4.63
2018-09-17T12:58:40.772Z,4.23
2018-09-17T13:01:44.988Z,4.73
2018-09-17T13:04:49.189Z,4.73
2018-09-17T13:07:53.384Z,4.57
2018-09-17T13:10:57.617Z,5.30
2018-09-17T13:14:01.809Z,4.87
2018-09-17T13:17:06.073Z,4.90
2018-09-17T13:20:10.440Z,4.53
2018-09-17T13:23:14.665Z,4.97
2018-09-17T13:26:18.862Z,5.20
2018-09-17T13:29:23.101Z,5.20
2018-09-17T13:32:27.297Z,5.60
2018-09-17T13:35:31.516Z,5.30
2018-09-17T13:38:35.729Z,4.93
2018-09-17T13:41:39.933Z,5.13
2018-09-17T13:44:44.197Z,4.00
2018-09-17T13:47:48.343Z,3.60
2018-09-17T13:50:52.545Z,3.80
2018-09-17T13:53:56.756Z,3.97
2018-09-17T13:57:00.944Z,4.37
2018-09-17T14:00:05.230Z,4.30
2018-09-17T14:03:09.409Z,3.80
2018-09-17T14:06:13.621Z,3.70
2018-09-17T14:09:17.826Z,4.43
2018-09-17T14:12:22.081Z,4.67
2018-09-17T14:15:26.336Z,4.17
2018-09-17T14:18:31.216Z,4.83
2018-09-17T14:21:35.432Z,5.80
2018-09-17T14:24:39.663Z,5.53
2018-09-17T14:27:43.891Z,6.57
2018-09-17T14:30:48.227Z,5.80
2018-09-17T14:33:52.501Z,5.63
2018-09-17T14:36:56.713Z,6.00
2018-09-17T14:40:00.925Z,6.37
2018-09-17T14:43:05.148Z,6.57
2018-09-17T14:46:09.446Z,6.77
2018-09-17T14:49:13.612Z,6.30
2018-09-17T14:52:17.939Z,7.97
2018-09-17T14:55:22.209Z,7.93
2018-09-17T14:58:26.422Z,7.70
2018-09-17T15:01:30.611Z,6.90
2018-09-17T15:04:34.788Z,7.40
2018-09-17T15:07:39.024Z,7.77
2018-09-17T15:10:43.217Z,8.80
2018-09-17T15:13:47.528Z,9.20
2018-09-17T15:16:51.751Z,9.60
2018-09-17T15:19:57.034Z,9.27
2018-09-17T15:23:01.257Z,9.93
2018-09-17T15:26:05.534Z,9.83
2018-09-17T15:29:09.661Z,8.27
2018-09-17T15:32:14.047Z,9.33
2018-09-17T15:35:18.210Z,8.80
2018-09-17T15:38:22.536Z,8.80
2018-09-17T15:41:26.802Z,10.33
2018-09-17T15:44:30.900Z,10.47
2018-09-17T15:47:35.097Z,11.40
2018-09-17T15:50:39.304Z,11.43
2018-09-17T15:53:43.501Z,11.23
2018-09-17T15:56:47.748Z,12.53
2018-09-17T15:59:53.452Z,11.43
2018-09-17T16:02:57.690Z,13.13
2018-09-17T16:06:01.897Z,14.00
2018-09-17T16:09:07.989Z,14.17
2018-09-17T16:12:12.253Z,13.13
2018-09-17T16:15:16.422Z,14.07
2018-09-17T16:18:20.639Z,15.63
2018-09-17T16:21:24.840Z,14.83
2018-09-17T16:24:29.061Z,15.80
2018-09-17T16:27:33.276Z,14.50
2018-09-17T16:30:37.581Z,13.83
2018-09-17T16:33:41.784Z,13.67
2018-09-17T16:36:45.980Z,12.97
2018-09-17T16:39:50.177Z,13.77
2018-09-17T16:42:54.381Z,13.43
2018-09-17T16:45:58.614Z,13.63
2018-09-17T16:49:02.885Z,13.43
2018-09-17T16:52:07.113Z,15.00
2018-09-17T16:55:11.320Z,15.10
2018-09-17T16:58:15.538Z,14.87
2018-09-17T17:01:19.728Z,16.50
2018-09-17T17:04:23.961Z,16.90
2018-09-17T17:07:28.158Z,17.90
2018-09-17T17:10:32.379Z,18.73
2018-09-17T17:13:36.609Z,20.53
2018-09-17T17:16:40.836Z,21.13
2018-09-17T17:19:45.038Z,21.90
2018-09-17T17:22:49.269Z,22.03
2018-09-17T17:25:53.514Z,22.10
2018-09-17T17:28:57.703Z,22.60
2018-09-17T17:32:01.925Z,22.67
2018-09-17T17:35:06.273Z,20.60
2018-09-17T17:38:10.470Z,20.27
2018-09-17T17:41:14.672Z,20.00
2018-09-17T17:44:19.642Z,20.23
2018-09-17T17:47:23.832Z,18.03
2018-09-17T17:50:28.047Z,18.97
2018-09-17T17:53:32.266Z,18.80
2018-09-17T17:56:37.492Z,18.30
2018-09-17T17:59:42.273Z,19.00
2018-09-17T18:02:46.481Z,20.03
2018-09-17T18:05:50.708Z,20.07
2018-09-17T18:08:54.926Z,19.30
2018-09-17T18:11:59.148Z,20.73
2018-09-17T18:15:03.364Z,21.47
2018-09-17T18:18:07.569Z,18.50
2018-09-17T18:21:11.829Z,19.20
2018-09-17T18:24:16.054Z,19.43
2018-09-17T18:27:20.367Z,19.43
2018-09-17T18:30:24.559Z,18.87
2018-09-17T18:33:28.760Z,16.73
2018-09-17T18:36:33.114Z,19.20
2018-09-17T18:39:37.960Z,18.70
2018-09-17T18:42:42.204Z,19.50
2018-09-17T18:45:46.425Z,19.10
2018-09-17T18:48:50.652Z,18.90
2018-09-17T18:51:55.655Z,19.07
2018-09-17T18:54:59.864Z,18.70
2018-09-17T18:58:04.123Z,19.23
2018-09-17T19:01:08.388Z,18.93
2018-09-17T19:04:12.672Z,19.60
2018-09-17T19:07:16.911Z,20.10
2018-09-17T19:10:21.169Z,19.23
2018-09-17T19:13:25.463Z,21.77
2018-09-17T19:16:34.994Z,28.63
2018-09-17T19:19:39.246Z,22.70
2018-09-17T19:22:48.754Z,20.43
2018-09-17T19:25:53.550Z,19.97
2018-09-17T19:29:03.094Z,20.67
2018-09-17T19:32:07.447Z,20.83
2018-09-17T19:35:11.710Z,18.80
2018-09-17T19:38:21.249Z,19.93
2018-09-17T19:41:25.424Z,20.53
2018-09-17T19:44:29.669Z,18.40
2018-09-17T19:47:33.864Z,21.40
2018-09-17T19:50:43.297Z,18.07
2018-09-17T19:53:47.549Z,18.67
2018-09-17T19:56:51.768Z,19.60
2018-09-17T19:59:57.569Z,20.40
2018-09-17T20:03:01.800Z,20.87
2018-09-17T20:06:11.222Z,21.10
2018-09-17T20:09:15.448Z,19.87
2018-09-17T20:12:19.641Z,19.77
2018-09-17T20:15:23.848Z,21.30
2018-09-17T20:18:28.146Z,20.17
2018-09-17T20:21:32.364Z,19.97
2018-09-17T20:24:36.661Z,22.73
2018-09-17T20:27:40.925Z,22.90
2018-09-17T20:30:45.118Z,20.10
2018-09-17T20:33:49.330Z,18.60
2018-09-17T20:36:53.533Z,22.07
2018-09-17T20:39:57.757Z,21.93
2018-09-17T20:43:01.968Z,24.67
2018-09-17T20:46:06.233Z,22.23
2018-09-17T20:49:10.430Z,23.03
2018-09-17T20:52:14.648Z,22.03
2018-09-17T20:55:18.935Z,21.90
2018-09-17T20:58:23.113Z,21.10
2018-09-17T21:01:27.490Z,21.97
2018-09-17T21:04:31.548Z,21.80
2018-09-17T21:07:35.737Z,21.57
2018-09-17T21:10:39.978Z,20.80
2018-09-17T21:13:44.217Z,21.23
2018-09-17T21:16:48.440Z,21.57
2018-09-17T21:19:52.648Z,20.37
2018-09-17T21:22:56.909Z,21.57
2018-09-17T21:26:01.110Z,21.60
2018-09-17T21:29:05.324Z,20.53
2018-09-17T21:32:09.528Z,22.23
2018-09-17T21:35:13.831Z,23.57
2018-09-17T21:38:17.992Z,23.10
2018-09-17T21:41:22.197Z,24.20
2018-09-17T21:44:26.408Z,26.00
2018-09-17T21:47:30.941Z,25.60
2018-09-17T21:50:35.133Z,25.10
2018-09-17T21:53:39.337Z,21.70
2018-09-17T21:56:43.524Z,22.13
2018-09-17T21:59:47.745Z,22.23
2018-09-17T22:02:51.928Z,21.20
2018-09-17T22:05:56.172Z,21.87
2018-09-17T22:09:00.369Z,22.60
2018-09-17T22:12:04.617Z,21.07
2018-09-17T22:15:08.833Z,22.00
2018-09-17T22:18:13.689Z,21.50
2018-09-17T22:21:17.876Z,22.77
2018-09-17T22:24:22.109Z,25.57
2018-09-17T22:27:26.326Z,25.43
2018-09-17T22:30:30.545Z,26.10
2018-09-17T22:33:34.756Z,25.23
2018-09-17T22:36:38.956Z,25.70
2018-09-17T22:39:43.180Z,26.53
2018-09-17T22:42:47.374Z,26.67
2018-09-17T22:45:51.560Z,26.17
2018-09-17T22:48:55.771Z,26.47
2018-09-17T22:52:00.018Z,26.07
2018-09-17T22:55:04.228Z,25.07
2018-09-17T22:58:08.437Z,24.80
2018-09-17T23:01:12.633Z,24.90
2018-09-17T23:04:16.856Z,23.73
2018-09-17T23:07:21.044Z,25.13
2018-09-17T23:10:25.244Z,22.93
2018-09-17T23:13:29.464Z,23.73
2018-09-17T23:16:33.686Z,23.30
2018-09-17T23:19:37.868Z,22.43
2018-09-17T23:22:42.109Z,20.37
2018-09-17T23:25:46.305Z,19.97
2018-09-17T23:28:50.537Z,20.70
2018-09-17T23:31:54.731Z,21.13
2018-09-17T23:35:00.907Z,20.67
2018-09-17T23:38:05.097Z,20.90
2018-09-17T23:41:09.333Z,21.07
2018-09-17T23:44:13.555Z,17.27
2018-09-17T23:47:17.736Z,17.10
2018-09-17T23:50:21.940Z,17.80
2018-09-17T23:53:26.871Z,18.37
2018-09-17T23:56:31.077Z,16.40
2018-09-17T23:59:35.282Z,17.13
